aviador You're here:

KAAF Decoded Metar

APALACHICOLA in FL, USA
Report Time2017-07-22 21:53:00
UTC Time2017-07-22 22:34:46
Flight Rules vfr VFR
Wind230° at 10 kt
W.Decomp.*RWY 24: 9.9 kt HW 1.2 kt LCW
RWY 18: 6.0 kt HW 8.0 kt RCW
RWY 32: 0.5 kt HW 10 kt LCW
W.Rank230° ranks 24
Current wind is above 230° avg. (6.8)
Visibility9999 m
Phenomena:N/A
Clouds:N/A
Expected CloudBase > 2,000 ft AGL from Temp-Dew spread
CeilingNone
Temp30°C (ISA +15)
Dew Point25°C (75% RH)
Heat Index36.3°C
QNH1015 hPa
Density Alt2,087 ft
Elevation16 ft
Report Wrong Elevation
Raw Report
KAAF 222153Z AUTO 23010KT 10SM CLR 30/25 A2998 RMK AO2 SLP152
T03000250=

Extra information for KAAF:More info

Metar Taf Metar & Taf Last 4 Metars F.Rules Stats Wind Profile Meteogram Temp Stats Airport Information Weather charts Add Link Nearby VenuesMetar ALERT Operation Metar Decoded Social comments

AIRNAV info for KAAF